createdAt,value
2023-03-29T00:28:21.954Z,12
2023-03-29T00:58:22.139Z,20
2023-03-29T01:28:21.757Z,20
2023-03-29T01:58:21.367Z,10
2023-03-29T02:28:21.548Z,8
2023-03-29T02:58:21.975Z,12
2023-03-29T03:28:21.584Z,14
2023-03-29T03:58:23.295Z,10
2023-03-29T04:28:21.622Z,12
2023-03-29T04:58:23.079Z,18
2023-03-29T05:28:21.485Z,10
2023-03-29T05:58:21.327Z,10
2023-03-29T06:28:21.858Z,8
2023-03-29T07:28:21.352Z,10
2023-03-29T07:58:21.832Z,8
2023-03-29T08:28:21.726Z,8
2023-03-29T08:58:21.326Z,6
2023-03-29T09:28:21.186Z,8
2023-03-29T09:58:21.665Z,10
2023-03-29T10:28:20.838Z,6
2023-03-29T10:58:21.198Z,8
2023-03-29T11:28:21.127Z,8
2023-03-29T11:58:21.295Z,10
2023-03-29T12:28:20.495Z,10
2023-03-29T12:58:21.070Z,6
2023-03-29T13:28:20.584Z,6
2023-03-29T13:58:20.533Z,8
2023-03-29T14:28:20.728Z,8
2023-03-29T14:58:20.533Z,10
2023-03-29T15:28:20.533Z,10
2023-03-29T15:58:20.832Z,8
2023-03-29T16:28:20.300Z,8
2023-03-29T16:58:20.245Z,6
2023-03-29T17:58:20.187Z,16
2023-03-29T18:28:20.835Z,8
2023-03-29T18:58:20.421Z,10
2023-03-29T19:28:20.344Z,18
2023-03-29T19:58:20.198Z,38
2023-03-29T20:28:20.052Z,46
2023-03-29T20:58:20.483Z,26
2023-03-29T21:28:20.460Z,16
2023-03-29T21:58:20.628Z,14
2023-03-29T22:28:19.514Z,16
2023-03-29T23:28:20.235Z,24
2023-03-29T23:58:19.631Z,28
